Time;durP1;ratioP1;P1;durP2;ratioP2;P2;SDS_P1;SDS_P2;PMS_P1;PMS_P2;Temp;Humidity;BMP_temperature;BMP_pressure;BME280_temperature;BME280_humidity;BME280_pressure;Samples;Min_cycle;Max_cycle;Signal;HPM_P1;HPM_P2
2023/08/10 00:01:57;;;;;;;4.75;1.60;;;25.50;83.30;;;;;;7405957;19;19915;-78
2023/08/10 00:04:22;;;;;;;6.47;2.20;;;25.40;86.20;;;;;;7402890;19;19943;-78
2023/08/10 00:06:48;;;;;;;6.93;2.33;;;25.30;90.20;;;;;;7406706;19;20331;-77
2023/08/10 00:09:14;;;;;;;6.05;1.98;;;25.30;91.20;;;;;;7403307;19;20419;-78
2023/08/10 00:11:40;;;;;;;6.05;2.20;;;25.20;92.40;;;;;;7406292;19;19990;-78
2023/08/10 00:14:06;;;;;;;5.07;1.90;;;25.20;93.20;;;;;;7382824;19;19915;-79
2023/08/10 00:16:33;;;;;;;7.75;2.22;;;25.10;93.90;;;;;;7407941;19;19926;-78
2023/08/10 00:19:01;;;;;;;7.32;2.10;;;25.10;94.20;;;;;;7411202;19;19915;-78
2023/08/10 00:21:29;;;;;;;6.47;2.35;;;25.00;94.20;;;;;;7409152;19;20296;-79
2023/08/10 00:23:56;;;;;;;7.95;2.40;;;25.00;94.80;;;;;;7411286;19;19919;-79
2023/08/10 00:26:23;;;;;;;6.70;2.42;;;25.00;94.50;;;;;;7412384;19;19934;-78
2023/08/10 00:28:50;;;;;;;4.80;2.13;;;25.00;94.50;;;;;;7412811;19;19927;-78
2023/08/10 00:31:15;;;;;;;;;;;25.00;94.90;;;;;;7416085;19;19922;-78
2023/08/10 00:33:41;;;;;;;6.35;2.40;;;25.00;94.60;;;;;;7411661;19;19922;-78
2023/08/10 00:36:08;;;;;;;6.82;2.38;;;25.00;94.90;;;;;;7411519;19;19926;-78
2023/08/10 00:38:35;;;;;;;7.53;2.40;;;25.10;95.00;;;;;;7414845;19;19922;-78
2023/08/10 00:41:02;;;;;;;5.47;1.98;;;25.00;95.30;;;;;;7412448;19;19923;-79
2023/08/10 00:43:28;;;;;;;6.07;2.30;;;25.10;95.10;;;;;;7408739;19;19947;-79
2023/08/10 00:45:54;;;;;;;5.85;2.00;;;25.00;95.30;;;;;;7412057;19;19919;-79
2023/08/10 00:48:21;;;;;;;5.50;2.25;;;25.00;95.60;;;;;;7409646;19;20312;-78
2023/08/10 00:50:52;;;;;;;5.63;2.22;;;25.10;96.40;;;;;;7416810;19;19914;-79
2023/08/10 00:53:20;;;;;;;6.28;2.05;;;25.10;96.70;;;;;;7415847;19;19926;-78
2023/08/10 00:55:51;;;;;;;5.78;1.90;;;25.00;96.90;;;;;;7409611;19;19918;-78
2023/08/10 00:58:19;;;;;;;6.30;2.30;;;25.00;97.00;;;;;;7410906;19;19961;-78
2023/08/10 01:00:45;;;;;;;5.80;2.25;;;25.00;96.80;;;;;;7410426;19;19936;-79
2023/08/10 01:03:11;;;;;;;6.55;2.13;;;25.10;96.50;;;;;;7409204;19;19951;-77
2023/08/10 01:05:47;;;;;;;6.03;2.50;;;25.20;96.30;;;;;;7409771;19;19923;-78
2023/08/10 01:08:21;;;;;;;7.18;2.40;;;25.20;96.20;;;;;;7408288;19;19922;-78
2023/08/10 01:11:16;;;;;;;6.90;2.60;;;25.20;96.10;;;;;;7410303;19;19918;-80
2023/08/10 01:13:50;;;;;;;6.13;2.45;;;25.30;95.70;;;;;;7408209;19;19911;-78
2023/08/10 01:16:16;;;;;;;6.15;2.40;;;25.20;95.10;;;;;;7408772;19;19922;-78
2023/08/10 01:18:43;;;;;;;10.23;2.60;;;25.20;95.00;;;;;;7411795;19;19975;-78
2023/08/10 01:21:52;;;;;;;6.05;2.20;;;25.10;95.60;;;;;;7408412;19;20335;-78
2023/08/10 01:24:26;;;;;;;5.82;2.35;;;25.20;95.80;;;;;;7405248;19;20259;-78
2023/08/10 01:26:55;;;;;;;6.25;2.50;;;25.20;95.50;;;;;;7406650;19;19934;-78
2023/08/10 01:29:22;;;;;;;5.93;2.70;;;25.20;95.70;;;;;;7383819;19;19989;-78
2023/08/10 01:31:48;;;;;;;7.32;2.58;;;25.20;95.60;;;;;;7401903;19;20003;-78
2023/08/10 01:34:14;;;;;;;6.55;2.40;;;25.20;95.40;;;;;;7408458;19;19922;-78
2023/08/10 01:36:41;;;;;;;5.90;2.30;;;25.30;94.80;;;;;;7406612;19;19935;-78
2023/08/10 01:39:06;;;;;;;6.47;2.22;;;25.30;95.30;;;;;;7407075;19;19911;-78
2023/08/10 01:41:32;;;;;;;5.15;2.20;;;25.20;95.50;;;;;;7409764;19;19922;-77
2023/08/10 01:43:58;;;;;;;6.93;2.70;;;25.10;95.40;;;;;;7406810;19;19914;-77
2023/08/10 01:46:27;;;;;;;6.70;2.63;;;25.00;95.30;;;;;;7407624;19;19915;-78
2023/08/10 01:48:56;;;;;;;7.75;2.83;;;25.10;94.80;;;;;;7409598;19;20014;-78
2023/08/10 01:51:25;;;;;;;5.70;2.65;;;25.10;94.80;;;;;;7410120;19;19934;-78
2023/08/10 01:53:52;;;;;;;6.75;2.55;;;25.10;94.20;;;;;;7408686;19;19918;-78
2023/08/10 01:56:19;;;;;;;5.95;2.47;;;25.10;94.40;;;;;;7363701;19;19984;-78
2023/08/10 01:58:46;;;;;;;7.90;2.80;;;25.10;94.90;;;;;;7409203;19;19929;-78
2023/08/10 02:01:11;;;;;;;7.65;2.35;;;25.10;95.20;;;;;;7409727;19;19928;-78
2023/08/10 02:03:37;;;;;;;7.75;2.78;;;24.90;95.90;;;;;;7411150;19;19915;-79
2023/08/10 02:06:03;;;;;;;6.57;2.78;;;24.90;95.90;;;;;;7411103;19;19949;-79
2023/08/10 02:08:29;;;;;;;8.52;3.33;;;24.80;96.10;;;;;;7409413;19;19982;-77
2023/08/10 02:10:55;;;;;;;7.65;2.47;;;24.70;96.30;;;;;;7411070;19;19926;-78
2023/08/10 02:13:21;;;;;;;6.88;2.42;;;24.70;96.50;;;;;;7415317;19;19915;-79
2023/08/10 02:15:47;;;;;;;5.13;2.58;;;24.70;96.30;;;;;;7416662;19;19919;-79
2023/08/10 02:18:13;;;;;;;;;;;24.70;96.10;;;;;;7410272;19;19915;-78
2023/08/10 02:20:39;;;;;;;7.22;2.92;;;24.70;95.80;;;;;;7408946;19;19930;-78
2023/08/10 02:23:05;;;;;;;6.47;3.10;;;24.70;95.60;;;;;;7406493;19;19927;-78
2023/08/10 02:25:31;;;;;;;8.73;3.50;;;24.80;95.00;;;;;;7407955;19;21173;-78
2023/08/10 02:27:57;;;;;;;7.28;3.22;;;25.00;93.90;;;;;;7410207;19;19923;-78
2023/08/10 02:30:23;;;;;;;9.77;2.58;;;25.20;92.90;;;;;;7406641;19;19922;-78
2023/08/10 02:32:48;;;;;;;8.23;3.20;;;25.30;92.10;;;;;;7401189;19;20281;-78
2023/08/10 02:35:14;;;;;;;6.90;2.83;;;25.40;91.90;;;;;;7405791;19;19987;-78
2023/08/10 02:37:41;;;;;;;7.18;2.88;;;25.40;91.50;;;;;;7406867;19;19930;-78
2023/08/10 02:40:07;;;;;;;;;;;25.40;91.60;;;;;;7408412;19;19922;-79
2023/08/10 02:42:33;;;;;;;6.45;3.10;;;25.40;91.80;;;;;;7415617;19;20013;-78
2023/08/10 02:44:59;;;;;;;7.57;3.10;;;25.40;91.90;;;;;;7405940;19;19948;-77
2023/08/10 02:47:25;;;;;;;6.50;3.20;;;25.30;92.20;;;;;;7407291;19;19922;-78
2023/08/10 02:49:51;;;;;;;8.73;3.45;;;25.30;92.50;;;;;;7409299;19;20300;-79
2023/08/10 02:52:17;;;;;;;7.88;3.13;;;25.30;93.50;;;;;;7404470;19;19922;-77
2023/08/10 02:54:43;;;;;;;7.72;3.70;;;25.30;94.20;;;;;;7412259;19;19923;-77
2023/08/10 02:57:09;;;;;;;7.88;3.67;;;25.30;94.60;;;;;;7406670;19;19925;-78
2023/08/10 02:59:34;;;;;;;8.23;3.40;;;25.10;95.20;;;;;;7412027;19;19947;-78
2023/08/10 03:02:02;;;;;;;6.90;3.30;;;25.10;95.60;;;;;;7412997;19;19928;-78
2023/08/10 03:04:29;;;;;;;8.55;3.92;;;25.00;96.10;;;;;;7411905;19;19922;-78
2023/08/10 03:06:56;;;;;;;7.05;3.30;;;25.00;96.50;;;;;;7407816;19;19925;-78
2023/08/10 03:09:22;;;;;;;7.82;3.78;;;24.90;96.90;;;;;;7407481;19;19926;-78
2023/08/10 03:11:47;;;;;;;8.23;3.38;;;24.80;97.00;;;;;;7386273;19;19921;-78
2023/08/10 03:14:13;;;;;;;7.55;3.85;;;24.90;97.10;;;;;;7374660;19;19951;-78
2023/08/10 03:16:39;;;;;;;6.68;3.15;;;24.80;96.90;;;;;;7406866;19;19962;-78
2023/08/10 03:19:05;;;;;;;9.32;3.33;;;24.70;97.00;;;;;;7403463;19;20469;-78
2023/08/10 03:21:30;;;;;;;7.93;3.35;;;24.70;97.30;;;;;;7407581;19;19925;-78
2023/08/10 03:23:57;;;;;;;7.75;3.20;;;24.80;97.30;;;;;;7407572;19;19943;-77
2023/08/10 03:26:22;;;;;;;7.90;3.13;;;24.90;96.90;;;;;;7409373;19;20061;-77
2023/08/10 03:28:48;;;;;;;7.93;3.00;;;24.90;96.70;;;;;;7408587;19;19986;-77
2023/08/10 03:31:14;;;;;;;5.57;3.05;;;25.00;96.00;;;;;;7407653;19;19910;-77
2023/08/10 03:33:40;;;;;;;7.50;3.08;;;25.00;95.80;;;;;;7403994;19;19926;-78
2023/08/10 03:36:07;;;;;;;7.30;3.22;;;25.00;95.90;;;;;;7407855;19;19979;-78
2023/08/10 03:38:33;;;;;;;9.48;3.10;;;24.90;96.10;;;;;;7409291;19;19955;-78
2023/08/10 03:40:59;;;;;;;6.80;2.72;;;25.00;96.10;;;;;;7407458;19;20346;-79
2023/08/10 03:43:24;;;;;;;8.50;3.60;;;24.90;96.20;;;;;;7404833;19;19918;-78
2023/08/10 03:45:50;;;;;;;8.50;2.78;;;24.90;96.20;;;;;;7409038;19;19922;-79
2023/08/10 03:48:16;;;;;;;7.88;3.10;;;24.80;96.40;;;;;;7406789;19;19922;-79
2023/08/10 03:50:42;;;;;;;7.28;2.75;;;24.80;96.70;;;;;;7406649;19;19918;-78
2023/08/10 03:53:08;;;;;;;7.95;2.83;;;24.80;96.80;;;;;;7402129;19;19939;-77
2023/08/10 03:55:34;;;;;;;7.88;3.17;;;24.70;97.20;;;;;;7407347;19;19942;-79
2023/08/10 03:57:59;;;;;;;7.15;2.72;;;24.70;97.50;;;;;;7407092;19;20417;-78
2023/08/10 04:00:25;;;;;;;7.35;2.65;;;24.70;97.80;;;;;;7401032;19;19986;-79
2023/08/10 04:02:51;;;;;;;6.78;2.85;;;24.70;98.10;;;;;;7409219;19;19929;-79
2023/08/10 04:05:17;;;;;;;7.18;2.67;;;24.70;98.30;;;;;;7402191;19;19926;-78
2023/08/10 04:07:43;;;;;;;6.45;3.05;;;24.60;98.50;;;;;;7406831;19;19949;-79
2023/08/10 04:10:12;;;;;;;6.50;2.80;;;24.60;98.80;;;;;;7408512;19;19959;-78
2023/08/10 04:12:39;;;;;;;8.05;2.90;;;24.60;99.00;;;;;;7408453;19;19942;-78
2023/08/10 04:15:09;;;;;;;8.90;2.67;;;24.60;99.50;;;;;;7406734;19;19978;-79
2023/08/10 04:17:36;;;;;;;9.00;2.78;;;24.60;99.70;;;;;;7404692;19;19919;-79
2023/08/10 04:20:08;;;;;;;6.43;2.72;;;24.50;99.90;;;;;;7406746;19;20268;-78
2023/08/10 04:22:35;;;;;;;5.32;2.17;;;24.60;99.90;;;;;;7407516;19;19918;-78
2023/08/10 04:25:02;;;;;;;7.50;2.65;;;24.50;99.90;;;;;;7406272;19;19923;-79
2023/08/10 04:27:28;;;;;;;4.93;2.15;;;24.50;99.90;;;;;;7405287;19;19914;-78
2023/08/10 04:29:53;;;;;;;5.63;2.47;;;24.50;99.90;;;;;;7407731;19;19930;-78
2023/08/10 04:32:19;;;;;;;7.45;2.58;;;24.50;99.90;;;;;;7409668;19;19950;-79
2023/08/10 04:34:45;;;;;;;5.88;2.63;;;24.50;99.90;;;;;;7408699;19;19919;-78
2023/08/10 04:37:12;;;;;;;6.95;2.42;;;24.60;99.90;;;;;;7402564;19;19957;-79
2023/08/10 04:39:38;;;;;;;;;;;24.60;99.90;;;;;;7409888;19;19922;-79
2023/08/10 04:42:03;;;;;;;6.95;2.80;;;24.60;99.90;;;;;;7403835;19;19918;-78
2023/08/10 04:44:29;;;;;;;8.60;2.30;;;24.50;99.90;;;;;;7407370;19;20347;-78
2023/08/10 04:46:55;;;;;;;7.60;2.40;;;24.60;99.90;;;;;;7404042;19;19962;-78
2023/08/10 04:49:21;;;;;;;6.40;2.72;;;24.70;99.90;;;;;;7409482;19;19926;-79
2023/08/10 04:51:47;;;;;;;12.63;2.95;;;24.70;99.90;;;;;;7405692;19;19930;-78
2023/08/10 04:54:13;;;;;;;8.20;2.92;;;24.60;99.90;;;;;;7405887;19;19922;-78
2023/08/10 04:56:38;;;;;;;8.15;2.65;;;24.60;99.90;;;;;;7403977;19;19948;-78
2023/08/10 04:59:04;;;;;;;8.30;2.85;;;24.60;99.90;;;;;;7402469;19;20504;-78
2023/08/10 05:01:30;;;;;;;9.65;3.53;;;24.60;99.90;;;;;;7404625;19;20356;-78
2023/08/10 05:03:56;;;;;;;7.15;3.08;;;24.50;99.90;;;;;;7416915;19;19915;-79
2023/08/10 05:06:23;;;;;;;7.63;2.67;;;24.50;99.90;;;;;;7411165;19;20967;-78
2023/08/10 05:08:48;;;;;;;9.55;3.15;;;24.50;99.90;;;;;;7413916;19;20347;-78
2023/08/10 05:11:15;;;;;;;7.47;3.20;;;24.40;99.90;;;;;;7407725;19;19921;-78
2023/08/10 05:13:41;;;;;;;7.38;3.10;;;24.40;99.90;;;;;;7410561;19;19918;-78
2023/08/10 05:16:07;;;;;;;6.05;2.90;;;24.40;99.90;;;;;;7380130;19;20288;-79
2023/08/10 05:18:33;;;;;;;8.32;3.60;;;24.40;99.90;;;;;;7412965;19;19924;-78
2023/08/10 05:21:00;;;;;;;8.43;3.47;;;24.40;99.90;;;;;;7411174;19;19918;-78
2023/08/10 05:23:26;;;;;;;8.52;4.78;;;24.40;99.90;;;;;;7411779;19;19929;-78
2023/08/10 05:25:53;;;;;;;6.47;2.83;;;24.40;99.90;;;;;;7411416;19;19942;-78
2023/08/10 05:28:18;;;;;;;7.57;3.38;;;24.40;99.90;;;;;;7406766;19;19927;-79
2023/08/10 05:30:44;;;;;;;9.43;3.17;;;24.40;99.90;;;;;;7412301;19;19931;-79
2023/08/10 05:33:11;;;;;;;10.35;3.58;;;24.40;99.90;;;;;;7408732;19;20488;-78
2023/08/10 05:35:37;;;;;;;6.90;3.42;;;24.50;99.90;;;;;;7408409;19;19922;-79
2023/08/10 05:38:03;;;;;;;10.07;3.63;;;24.50;99.90;;;;;;7412461;19;19918;-79
2023/08/10 05:40:29;;;;;;;6.60;2.97;;;24.50;99.90;;;;;;7413304;19;20356;-79
2023/08/10 05:42:55;;;;;;;11.15;4.03;;;24.50;99.90;;;;;;7409290;19;19918;-78
2023/08/10 05:45:22;;;;;;;8.68;3.88;;;24.50;99.90;;;;;;7408405;19;19923;-78
2023/08/10 05:47:50;;;;;;;7.53;3.60;;;24.60;99.90;;;;;;7408836;19;19911;-78
2023/08/10 05:50:16;;;;;;;8.07;3.42;;;24.60;99.90;;;;;;7407283;19;20434;-79
2023/08/10 05:52:45;;;;;;;;;;;24.60;99.90;;;;;;7414453;19;19936;-78
2023/08/10 05:55:12;;;;;;;8.48;3.20;;;24.70;99.90;;;;;;7409408;19;19922;-79
2023/08/10 05:57:39;;;;;;;9.02;3.63;;;24.70;99.90;;;;;;7413432;19;19926;-79
2023/08/10 06:00:05;;;;;;;9.15;3.55;;;24.80;99.90;;;;;;7407711;19;20222;-78
2023/08/10 06:02:31;;;;;;;11.60;3.83;;;24.70;99.90;;;;;;7410547;19;20359;-79
2023/08/10 06:04:57;;;;;;;8.45;3.10;;;24.80;99.90;;;;;;7413764;19;19927;-79
2023/08/10 06:07:23;;;;;;;9.77;3.60;;;24.90;99.90;;;;;;7411138;19;19926;-78
2023/08/10 06:09:49;;;;;;;8.40;3.58;;;25.00;99.80;;;;;;7411399;19;19919;-78
2023/08/10 06:12:17;;;;;;;9.98;3.17;;;25.10;99.50;;;;;;7410216;19;19994;-79
2023/08/10 06:14:44;;;;;;;10.70;3.65;;;25.20;99.40;;;;;;7411229;19;19929;-78
2023/08/10 06:17:11;;;;;;;8.43;3.10;;;25.30;99.30;;;;;;7411140;19;19918;-78
2023/08/10 06:19:37;;;;;;;11.57;3.67;;;25.30;99.00;;;;;;7407340;19;19925;-78
2023/08/10 06:22:04;;;;;;;9.07;3.83;;;25.30;98.90;;;;;;7412090;19;19926;-78
2023/08/10 06:24:30;;;;;;;9.88;3.70;;;25.40;98.70;;;;;;7407617;19;19971;-78
2023/08/10 06:26:56;;;;;;;8.85;3.65;;;25.40;98.80;;;;;;7414155;19;19918;-79
2023/08/10 06:29:22;;;;;;;9.73;4.53;;;25.40;98.90;;;;;;7414366;19;19999;-79
2023/08/10 06:31:48;;;;;;;7.40;3.40;;;25.50;98.60;;;;;;7409437;19;19915;-78
2023/08/10 06:34:16;;;;;;;6.70;3.50;;;25.60;98.40;;;;;;7404871;19;19919;-78
2023/08/10 06:36:42;;;;;;;7.72;3.40;;;25.70;98.40;;;;;;7410155;19;19981;-77
2023/08/10 06:39:10;;;;;;;7.65;3.60;;;25.80;98.50;;;;;;7407230;19;19918;-78
2023/08/10 06:41:36;;;;;;;11.65;3.42;;;25.70;98.80;;;;;;7410154;19;19923;-79
2023/08/10 06:44:03;;;;;;;11.15;3.45;;;25.70;99.10;;;;;;7413448;19;20283;-79
2023/08/10 06:46:29;;;;;;;10.15;3.35;;;25.80;98.80;;;;;;7413407;19;19925;-78
2023/08/10 06:48:55;;;;;;;7.40;2.80;;;25.90;98.30;;;;;;7412277;19;19914;-79
2023/08/10 06:51:21;;;;;;;8.32;2.90;;;26.00;98.50;;;;;;7414178;19;19957;-78
2023/08/10 06:53:47;;;;;;;10.90;3.10;;;26.00;98.30;;;;;;7409917;19;19919;-79
2023/08/10 06:56:13;;;;;;;9.70;3.47;;;26.10;98.10;;;;;;7408155;19;19922;-77
2023/08/10 06:58:38;;;;;;;9.95;3.22;;;26.10;97.80;;;;;;7412962;19;19910;-78
2023/08/10 07:01:05;;;;;;;15.68;3.50;;;26.10;98.10;;;;;;7411180;19;19978;-79
2023/08/10 07:03:31;;;;;;;10.20;3.33;;;26.30;97.60;;;;;;7408789;19;19907;-77
2023/08/10 07:05:57;;;;;;;8.65;3.47;;;26.40;97.30;;;;;;7409686;19;19929;-77
2023/08/10 07:08:23;;;;;;;9.80;3.53;;;26.50;97.00;;;;;;7405432;19;19938;-77
2023/08/10 07:10:50;;;;;;;12.15;3.85;;;26.70;96.90;;;;;;7406671;19;19914;-78
2023/08/10 07:13:16;;;;;;;8.10;3.72;;;26.60;96.70;;;;;;7408318;19;20842;-79
2023/08/10 07:15:46;;;;;;;11.45;3.30;;;26.60;96.70;;;;;;7407880;19;19919;-79
2023/08/10 07:18:14;;;;;;;9.60;3.33;;;26.70;96.20;;;;;;7407231;19;19926;-77
2023/08/10 07:20:40;;;;;;;7.75;3.40;;;26.70;96.50;;;;;;7406329;19;20017;-78
2023/08/10 07:23:06;;;;;;;8.07;3.50;;;26.70;96.00;;;;;;7406072;19;19915;-77
2023/08/10 07:25:32;;;;;;;6.90;3.35;;;26.80;96.00;;;;;;7408290;19;19919;-78
2023/08/10 07:27:58;;;;;;;11.23;3.42;;;26.90;95.40;;;;;;7410010;19;19922;-77
2023/08/10 07:30:23;;;;;;;12.05;3.13;;;27.00;95.10;;;;;;7355990;19;19919;-77
2023/08/10 07:32:49;;;;;;;12.60;3.95;;;27.00;94.90;;;;;;7408901;19;19921;-78
2023/08/10 07:35:15;;;;;;;11.45;3.25;;;27.10;94.70;;;;;;7406334;19;20047;-78
2023/08/10 07:37:41;;;;;;;7.95;3.03;;;27.10;94.60;;;;;;7409248;19;19906;-78
2023/08/10 07:40:11;;;;;;;9.50;3.45;;;27.30;94.30;;;;;;7409273;19;20341;-80
2023/08/10 07:42:38;;;;;;;10.38;3.47;;;27.20;94.10;;;;;;7408959;19;19990;-77
2023/08/10 07:45:05;;;;;;;9.55;3.00;;;27.50;93.80;;;;;;7406255;19;19978;-78
2023/08/10 07:47:31;;;;;;;8.75;3.75;;;27.70;93.50;;;;;;7409550;19;19937;-78
2023/08/10 07:49:57;;;;;;;12.77;3.78;;;27.70;93.20;;;;;;7409535;19;19915;-77
2023/08/10 07:52:23;;;;;;;9.90;3.38;;;27.90;93.10;;;;;;7408366;19;19930;-76
2023/08/10 07:54:49;;;;;;;6.13;3.15;;;27.70;93.50;;;;;;7406264;19;19921;-78
2023/08/10 07:57:14;;;;;;;7.82;3.05;;;27.70;93.40;;;;;;7405267;19;19938;-79
2023/08/10 07:59:40;;;;;;;11.70;3.67;;;27.80;93.00;;;;;;7406405;19;19954;-78
2023/08/10 08:02:06;;;;;;;9.32;3.63;;;27.70;93.80;;;;;;7406918;19;19915;-77
2023/08/10 08:04:32;;;;;;;8.85;3.42;;;27.90;93.40;;;;;;7409105;19;19907;-78
2023/08/10 08:07:02;;;;;;;9.38;3.55;;;27.90;93.40;;;;;;7408412;19;19919;-79
2023/08/10 08:09:28;;;;;;;11.38;4.63;;;27.70;94.50;;;;;;7410037;19;19923;-79
2023/08/10 08:11:55;;;;;;;9.57;4.13;;;27.90;94.00;;;;;;7411457;19;20280;-78
2023/08/10 08:14:21;;;;;;;11.10;3.40;;;27.90;93.60;;;;;;7410219;19;19991;-79
2023/08/10 08:16:46;;;;;;;14.45;3.75;;;28.10;93.30;;;;;;7411131;19;19918;-79
2023/08/10 08:19:12;;;;;;;11.05;4.18;;;28.20;92.70;;;;;;7408035;19;20299;-78
2023/08/10 08:21:38;;;;;;;8.63;4.25;;;28.10;92.80;;;;;;7409883;19;20003;-78
2023/08/10 08:24:05;;;;;;;10.80;3.40;;;28.10;92.90;;;;;;7406495;19;19922;-79
2023/08/10 08:26:33;;;;;;;9.25;3.00;;;28.10;92.50;;;;;;7403086;19;20028;-78
2023/08/10 08:29:01;;;;;;;11.82;3.50;;;28.20;92.30;;;;;;7409429;19;19921;-77
2023/08/10 08:31:27;;;;;;;8.30;3.15;;;28.70;91.20;;;;;;7375314;19;19937;-78
2023/08/10 08:33:53;;;;;;;10.48;3.33;;;29.00;90.60;;;;;;7407101;19;19971;-78
2023/08/10 08:36:19;;;;;;;9.55;3.58;;;29.40;88.30;;;;;;7405181;19;19918;-78
2023/08/10 08:38:45;;;;;;;10.88;3.30;;;29.40;86.70;;;;;;7413984;19;20340;-79
2023/08/10 08:41:11;;;;;;;9.18;3.25;;;29.60;86.20;;;;;;7412591;19;19919;-79
2023/08/10 08:43:38;;;;;;;9.25;3.35;;;29.50;85.60;;;;;;7385336;19;19926;-79
2023/08/10 08:46:06;;;;;;;9.73;3.50;;;30.30;83.50;;;;;;7413893;19;19919;-78
2023/08/10 08:48:33;;;;;;;7.15;3.47;;;30.80;80.20;;;;;;7392390;19;19915;-78
2023/08/10 08:50:58;;;;;;;8.32;2.97;;;31.30;79.50;;;;;;7415863;19;19919;-79
2023/08/10 08:53:25;;;;;;;8.02;3.28;;;32.20;76.20;;;;;;7416232;19;19939;-79
2023/08/10 08:55:52;;;;;;;10.02;3.83;;;33.00;73.10;;;;;;7418195;19;19926;-79
2023/08/10 08:58:18;;;;;;;7.53;3.65;;;33.50;70.50;;;;;;7411274;19;19926;-78
2023/08/10 09:00:50;;;;;;;10.63;4.07;;;33.20;70.30;;;;;;7413922;19;19926;-78
2023/08/10 09:03:17;;;;;;;8.75;3.38;;;32.90;69.30;;;;;;7417023;19;19921;-80
2023/08/10 09:05:45;;;;;;;11.60;4.03;;;33.30;70.20;;;;;;7415661;19;19945;-77
2023/08/10 09:08:14;;;;;;;11.65;4.15;;;33.30;70.30;;;;;;7414299;19;19911;-79
2023/08/10 09:10:40;;;;;;;12.23;4.63;;;33.10;72.80;;;;;;7415834;19;19925;-78
2023/08/10 09:13:32;;;;;;;16.58;4.97;;;33.40;71.90;;;;;;7411484;19;19961;-78
2023/08/10 09:16:14;;;;;;;12.27;4.47;;;33.30;72.00;;;;;;7415260;19;19939;-78
2023/08/10 09:18:43;;;;;;;13.15;5.00;;;33.70;72.10;;;;;;7420565;19;19910;-79
2023/08/10 09:21:20;;;;;;;12.80;5.20;;;33.80;71.30;;;;;;7418504;19;19964;-80
2023/08/10 09:23:48;;;;;;;13.90;5.43;;;33.90;72.10;;;;;;7419478;19;19955;-80
2023/08/10 09:26:17;;;;;;;16.55;5.15;;;33.80;71.70;;;;;;7414152;19;19930;-79
2023/08/10 09:28:45;;;;;;;11.73;5.00;;;34.20;73.30;;;;;;7418511;19;19931;-81
2023/08/10 09:31:11;;;;;;;14.25;6.50;;;34.40;71.20;;;;;;7417327;19;20256;-79
2023/08/10 09:33:38;;;;;;;10.57;4.72;;;33.90;72.50;;;;;;7418751;19;19915;-79
2023/08/10 09:36:09;;;;;;;7.00;3.85;;;33.60;72.80;;;;;;7412702;19;19929;-79
2023/08/10 09:38:35;;;;;;;14.13;4.95;;;33.50;74.20;;;;;;7419531;19;20005;-80
2023/08/10 09:41:12;;;;;;;10.55;5.05;;;33.80;74.40;;;;;;7415254;19;19930;-79
2023/08/10 09:43:43;;;;;;;11.40;5.95;;;34.80;71.20;;;;;;7412396;19;20785;-79
2023/08/10 09:46:11;;;;;;;11.57;4.28;;;34.20;70.70;;;;;;7412929;19;20633;-80
2023/08/10 09:48:42;;;;;;;11.30;4.70;;;34.40;70.30;;;;;;7415486;19;19918;-79
2023/08/10 09:51:09;;;;;;;15.30;4.55;;;34.60;71.20;;;;;;7413236;19;19919;-80
2023/08/10 09:53:36;;;;;;;14.02;5.07;;;34.40;70.30;;;;;;7412481;19;19930;-79
2023/08/10 09:56:03;;;;;;;11.13;6.13;;;34.70;71.20;;;;;;7416114;19;20344;-78
2023/08/10 09:58:29;;;;;;;9.63;4.18;;;35.10;70.70;;;;;;7414622;19;19941;-80
2023/08/10 10:00:55;;;;;;;13.18;4.85;;;35.60;68.20;;;;;;7416906;19;19914;-78
2023/08/10 10:03:22;;;;;;;12.25;5.13;;;35.50;68.80;;;;;;7415193;19;19959;-78
2023/08/10 10:05:50;;;;;;;14.60;5.00;;;33.80;72.10;;;;;;7412352;19;19933;-78
2023/08/10 10:08:17;;;;;;;14.60;4.88;;;33.50;75.10;;;;;;7408715;19;19921;-79
2023/08/10 10:10:47;;;;;;;9.95;4.22;;;32.40;76.10;;;;;;7414275;19;19922;-79
2023/08/10 10:13:15;;;;;;;11.95;4.20;;;33.50;75.80;;;;;;7411626;19;19915;-80
2023/08/10 10:15:43;;;;;;;13.95;4.90;;;34.00;74.20;;;;;;7411947;19;19998;-80
2023/08/10 10:18:12;;;;;;;9.23;4.28;;;34.20;73.60;;;;;;7409842;19;19915;-80
2023/08/10 10:20:44;;;;;;;9.10;4.25;;;33.30;75.30;;;;;;7414459;19;19919;-80
2023/08/10 10:23:14;;;;;;;;;;;32.30;79.50;;;;;;7411901;19;19978;-79
2023/08/10 10:25:41;;;;;;;19.85;4.72;;;32.80;79.50;;;;;;7414038;19;19919;-79
2023/08/10 10:28:16;;;;;;;14.75;4.20;;;33.00;78.60;;;;;;7410328;19;19919;-79
2023/08/10 10:30:59;;;;;;;15.65;4.50;;;34.00;76.80;;;;;;7415674;19;19950;-79
2023/08/10 10:33:25;;;;;;;11.25;3.95;;;34.00;74.80;;;;;;7411679;19;19946;-79
2023/08/10 10:36:20;;;;;;;11.82;4.20;;;33.40;75.90;;;;;;7411187;19;20347;-79
2023/08/10 10:38:53;;;;;;;10.27;4.13;;;33.30;77.30;;;;;;7410471;19;20335;-79
2023/08/10 10:41:32;;;;;;;12.52;6.05;;;33.20;76.90;;;;;;7410216;19;20247;-80
2023/08/10 10:43:59;;;;;;;10.95;4.10;;;32.40;80.50;;;;;;7414388;19;19935;-79
2023/08/10 10:46:45;;;;;;;11.30;4.25;;;33.60;77.30;;;;;;7412292;19;19922;-79
2023/08/10 10:49:14;;;;;;;10.55;4.45;;;34.00;75.30;;;;;;7411050;19;19922;-80
2023/08/10 10:52:04;;;;;;;9.88;4.00;;;34.10;74.30;;;;;;7411779;19;19923;-80
2023/08/10 10:54:35;;;;;;;9.95;4.07;;;34.90;72.80;;;;;;7411194;19;19915;-81
2023/08/10 10:57:02;;;;;;;12.15;4.43;;;35.40;70.50;;;;;;7416093;19;19938;-81
2023/08/10 10:59:27;;;;;;;12.65;6.43;;;36.00;68.70;;;;;;7416789;19;20254;-80
2023/08/10 11:01:54;;;;;;;10.45;4.68;;;36.00;67.20;;;;;;7417426;19;19919;-80
2023/08/10 11:04:22;;;;;;;12.43;4.35;;;35.80;65.80;;;;;;7416293;19;19931;-81
2023/08/10 11:06:48;;;;;;;11.65;5.07;;;36.00;65.00;;;;;;7414336;19;19918;-80
2023/08/10 11:09:15;;;;;;;12.57;4.35;;;36.20;64.00;;;;;;7414158;19;19934;-80
2023/08/10 11:11:46;;;;;;;14.35;4.97;;;36.50;62.00;;;;;;7413600;19;19927;-80
2023/08/10 11:14:13;;;;;;;12.18;5.93;;;36.30;60.80;;;;;;7410825;19;20308;-81
2023/08/10 11:16:43;;;;;;;11.52;4.53;;;36.70;60.80;;;;;;7411436;19;19910;-80
2023/08/10 11:19:16;;;;;;;9.68;4.22;;;36.70;58.20;;;;;;7414532;19;19921;-80
2023/08/10 11:21:44;;;;;;;11.10;4.30;;;36.30;58.20;;;;;;7412200;19;19925;-80
2023/08/10 11:24:10;;;;;;;9.55;3.95;;;36.10;58.80;;;;;;7411455;19;19922;-80
2023/08/10 11:26:36;;;;;;;9.25;4.40;;;36.10;59.20;;;;;;7411874;19;20556;-80
2023/08/10 11:29:03;;;;;;;11.13;4.00;;;35.80;59.40;;;;;;7412151;19;19922;-80
2023/08/10 11:31:38;;;;;;;11.02;5.90;;;36.20;58.20;;;;;;7416621;19;20007;-80
2023/08/10 11:34:21;;;;;;;11.15;6.88;;;36.30;57.70;;;;;;7414216;19;19919;-79
2023/08/10 11:36:48;;;;;;;8.52;4.68;;;36.50;58.10;;;;;;7414408;19;19922;-80
2023/08/10 11:39:13;;;;;;;7.63;3.88;;;37.00;56.80;;;;;;7412558;19;19925;-81
2023/08/10 11:41:43;;;;;;;9.75;4.47;;;37.20;56.00;;;;;;7417507;19;19918;-80
2023/08/10 11:44:09;;;;;;;10.05;6.32;;;37.20;55.70;;;;;;7414174;19;20465;-80
2023/08/10 11:46:35;;;;;;;10.88;5.50;;;36.90;56.30;;;;;;7412992;19;19923;-81
2023/08/10 11:49:01;;;;;;;9.80;5.20;;;36.60;57.90;;;;;;7411500;19;19934;-80
2023/08/10 11:51:34;;;;;;;10.10;5.47;;;36.80;58.40;;;;;;7411169;19;19934;-79
2023/08/10 11:54:10;;;;;;;9.38;4.10;;;37.20;58.00;;;;;;7413747;19;19930;-80
2023/08/10 11:56:45;;;;;;;10.43;4.63;;;36.90;58.50;;;;;;7414107;19;19918;-80
2023/08/10 11:59:14;;;;;;;9.73;4.65;;;37.00;59.30;;;;;;7413059;19;19915;-80
2023/08/10 12:01:52;;;;;;;9.77;4.53;;;37.00;59.90;;;;;;7415265;19;19911;-80
2023/08/10 12:04:18;;;;;;;;;;;37.50;59.30;;;;;;7411196;19;19929;-80
2023/08/10 12:06:44;;;;;;;10.75;4.32;;;37.50;58.90;;;;;;7412514;19;19911;-79
2023/08/10 12:09:11;;;;;;;9.82;3.97;;;37.20;59.20;;;;;;7410845;19;19923;-79
2023/08/10 12:11:45;;;;;;;9.25;4.47;;;37.10;59.90;;;;;;7414749;19;19910;-79
2023/08/10 12:14:11;;;;;;;10.07;4.80;;;37.20;59.80;;;;;;7414484;19;19922;-79
2023/08/10 12:16:36;;;;;;;9.23;4.55;;;37.10;60.10;;;;;;7417936;19;19913;-79
2023/08/10 12:19:02;;;;;;;9.48;4.75;;;36.80;61.00;;;;;;7417189;19;19926;-79
2023/08/10 12:21:28;;;;;;;8.70;4.15;;;37.10;61.40;;;;;;7417555;19;19955;-79
2023/08/10 12:23:55;;;;;;;10.57;4.07;;;37.20;61.00;;;;;;7397053;19;19917;-79
2023/08/10 12:26:22;;;;;;;13.82;6.53;;;37.00;62.40;;;;;;7414755;19;19919;-80
2023/08/10 12:28:48;;;;;;;7.63;3.85;;;37.40;62.00;;;;;;7418856;19;19943;-80
2023/08/10 12:31:15;;;;;;;11.48;5.43;;;37.30;62.20;;;;;;7420894;19;20271;-80
2023/08/10 12:33:41;;;;;;;8.77;4.65;;;36.40;64.40;;;;;;7420408;19;19918;-80
2023/08/10 12:36:07;;;;;;;11.30;4.05;;;36.50;64.80;;;;;;7417799;19;19915;-80
2023/08/10 12:38:33;;;;;;;8.98;3.83;;;35.70;66.50;;;;;;7419564;19;19918;-81
2023/08/10 12:40:59;;;;;;;12.35;4.05;;;34.90;68.90;;;;;;7417242;19;19962;-79
2023/08/10 12:43:25;;;;;;;7.32;3.35;;;33.90;73.40;;;;;;7418276;19;19947;-79
2023/08/10 12:45:50;;;;;;;9.50;3.90;;;34.00;73.20;;;;;;7414782;19;19946;-79
2023/08/10 12:48:16;;;;;;;9.95;4.35;;;33.70;74.40;;;;;;7413768;19;19960;-79